createdAt,value
2019-06-20T00:00:22.009Z,68.7
2019-06-20T00:01:19.222Z,68.8
2019-06-20T00:02:17.828Z,68.8
2019-06-20T00:03:21.852Z,68.6
2019-06-20T00:04:21.211Z,68.7
2019-06-20T00:05:18.682Z,68.8
2019-06-20T00:06:15.772Z,68.8
2019-06-20T00:07:15.802Z,68.6
2019-06-20T00:08:15.637Z,68.6
2019-06-20T00:09:15.671Z,68.8
2019-06-20T00:10:15.843Z,68.8
2019-06-20T00:11:23.677Z,68.4
2019-06-20T00:12:25.159Z,68.7
2019-06-20T00:13:23.672Z,68.4
2019-06-20T00:14:23.554Z,68.6
2019-06-20T00:15:24.086Z,68.7
2019-06-20T00:16:20.467Z,68.5
2019-06-20T00:17:17.949Z,68.8
2019-06-20T00:18:16.220Z,68.8
2019-06-20T00:19:16.197Z,68.6
2019-06-20T00:20:13.778Z,68.5
2019-06-20T00:21:22.964Z,68.5
2019-06-20T00:22:26.417Z,68.5
2019-06-20T00:23:42.794Z,68.6
2019-06-20T00:24:43.259Z,68.6
2019-06-20T00:25:43.551Z,68.7
2019-06-20T00:26:43.722Z,68.9
2019-06-20T00:27:42.392Z,69
2019-06-20T00:28:40.151Z,69
2019-06-20T00:29:38.006Z,69.2
2019-06-20T00:30:37.955Z,69.4
2019-06-20T00:31:35.170Z,69.2
2019-06-20T00:32:32.518Z,69.4
2019-06-20T00:33:31.252Z,69.6
2019-06-20T00:34:29.109Z,69.6
2019-06-20T00:35:28.025Z,69.4
2019-06-20T00:36:32.824Z,69.3
2019-06-20T00:37:28.660Z,69.3
2019-06-20T00:38:25.533Z,69.4
2019-06-20T00:39:23.737Z,69.6
2019-06-20T00:40:22.251Z,69.5
2019-06-20T00:41:19.547Z,69.1
2019-06-20T00:42:23.242Z,69.1
2019-06-20T00:43:22.456Z,69.6
2019-06-20T00:44:19.795Z,69.6
2019-06-20T00:45:19.555Z,69.4
2019-06-20T00:46:21.659Z,69.3
2019-06-20T00:47:19.360Z,69.4
2019-06-20T00:48:18.083Z,69.3
2019-06-20T00:49:15.266Z,69.2
2019-06-20T00:50:15.361Z,69.1
2019-06-20T00:51:17.506Z,69.3
2019-06-20T00:52:17.552Z,69.3
2019-06-20T00:53:20.803Z,69.3
2019-06-20T00:54:19.667Z,69.3
2019-06-20T00:55:23.874Z,69.4
2019-06-20T00:56:20.960Z,69.3
2019-06-20T00:57:19.324Z,69.1
2019-06-20T00:58:16.801Z,69.1
2019-06-20T00:59:16.055Z,69.3
2019-06-20T01:00:17.270Z,69.4
2019-06-20T01:01:15.976Z,69.1
2019-06-20T01:02:13.380Z,69.2
2019-06-20T01:03:11.451Z,69.2
2019-06-20T01:04:09.537Z,69.2
2019-06-20T01:05:08.405Z,69.3
2019-06-20T01:06:08.860Z,69.2
2019-06-20T01:07:06.672Z,69.4
2019-06-20T01:08:04.913Z,69.4
2019-06-20T01:09:02.216Z,69.5
2019-06-20T01:09:59.182Z,69.3
2019-06-20T01:10:57.995Z,69.5
2019-06-20T01:11:57.126Z,69.6
2019-06-20T01:12:55.658Z,69.7
2019-06-20T01:13:53.024Z,69.8
2019-06-20T01:14:54.273Z,70
2019-06-20T01:15:49.489Z,69.9
2019-06-20T01:16:46.721Z,70
2019-06-20T01:17:49.993Z,70
2019-06-20T01:18:48.545Z,70.1
2019-06-20T01:19:58.133Z,70.2
2019-06-20T01:20:58.420Z,70.1
2019-06-20T01:21:56.322Z,70.1
2019-06-20T01:23:01.183Z,70.2
2019-06-20T01:23:56.554Z,70.3
2019-06-20T01:24:56.048Z,70.3
2019-06-20T01:25:55.269Z,70.3
2019-06-20T01:26:54.164Z,70.4
2019-06-20T01:27:51.292Z,70.5
2019-06-20T01:29:00.747Z,70.5
2019-06-20T01:29:59.340Z,70.5
2019-06-20T01:30:56.139Z,70.5
2019-06-20T01:31:53.139Z,70.8
2019-06-20T01:32:50.300Z,70.8
2019-06-20T01:33:52.487Z,70.6
2019-06-20T01:34:49.627Z,70.7
2019-06-20T01:35:50.452Z,70.9
2019-06-20T01:36:49.091Z,71
2019-06-20T01:37:54.742Z,70.9
2019-06-20T01:38:58.345Z,70.9
2019-06-20T01:39:55.387Z,71.1
2019-06-20T01:40:52.938Z,71
2019-06-20T01:41:49.736Z,71
2019-06-20T01:42:53.403Z,71.1
2019-06-20T01:43:51.500Z,71
2019-06-20T01:44:53.647Z,71
2019-06-20T01:45:51.163Z,71.3
2019-06-20T01:46:48.444Z,71.4
2019-06-20T01:47:46.727Z,71.2
2019-06-20T01:48:45.853Z,71
2019-06-20T01:49:42.883Z,71.1
2019-06-20T01:50:40.308Z,71.2
2019-06-20T01:51:37.493Z,71.3
2019-06-20T01:52:37.919Z,71.4
2019-06-20T01:53:34.924Z,71.4
2019-06-20T01:55:34.139Z,71.3
2019-06-20T01:56:31.213Z,71.3
2019-06-20T01:57:37.276Z,71.3
2019-06-20T01:58:34.803Z,71.2
2019-06-20T01:59:32.024Z,71.2
2019-06-20T02:00:28.860Z,71.4
2019-06-20T02:01:31.702Z,71.2
2019-06-20T02:02:30.620Z,71.2
2019-06-20T02:03:27.281Z,71.3
2019-06-20T02:04:26.160Z,71.3
2019-06-20T02:05:26.729Z,71.3
2019-06-20T02:06:24.791Z,71.4
2019-06-20T02:07:28.104Z,71.6
2019-06-20T02:08:22.631Z,71.6
2019-06-20T02:09:19.930Z,71.6
2019-06-20T02:10:19.166Z,71.6
2019-06-20T02:11:18.102Z,71.8
2019-06-20T02:12:16.830Z,71.8
2019-06-20T02:13:15.229Z,71.9
2019-06-20T02:14:12.216Z,71.8
2019-06-20T02:15:10.752Z,71.8
2019-06-20T02:16:07.553Z,71.7
2019-06-20T02:17:08.186Z,71.9
2019-06-20T02:18:07.740Z,71.8
2019-06-20T02:19:09.011Z,71.9
2019-06-20T02:20:09.573Z,71.8
2019-06-20T02:21:07.176Z,71.8
2019-06-20T02:22:03.954Z,71.9
2019-06-20T02:23:02.224Z,72
2019-06-20T02:23:59.181Z,72
2019-06-20T02:25:06.364Z,72
2019-06-20T02:26:03.604Z,72.1
2019-06-20T02:27:02.423Z,72.1
2019-06-20T02:28:00.733Z,71.8
2019-06-20T02:29:00.424Z,72
2019-06-20T02:29:59.501Z,71.9
2019-06-20T02:31:08.065Z,72.1
2019-06-20T02:32:05.565Z,72.1
2019-06-20T02:33:03.029Z,72.1
2019-06-20T02:34:00.240Z,72.1
2019-06-20T02:34:58.026Z,72.1
2019-06-20T02:35:57.576Z,72.1
2019-06-20T02:36:55.285Z,72.2
2019-06-20T02:37:53.182Z,72.4
2019-06-20T02:38:50.347Z,72.4
2019-06-20T02:39:49.342Z,72.4
2019-06-20T02:40:58.918Z,72.3
2019-06-20T02:41:59.834Z,72.2
2019-06-20T02:43:07.462Z,72.2
2019-06-20T02:43:34.765Z,72.2
2019-06-20T02:44:31.573Z,72.3
2019-06-20T02:45:29.118Z,72.2
2019-06-20T02:46:27.190Z,72.2
2019-06-20T02:47:28.729Z,72.1
2019-06-20T02:48:25.699Z,72.1
2019-06-20T02:49:23.181Z,72.2
2019-06-20T02:50:25.168Z,72.3
2019-06-20T02:51:25.497Z,72.3
2019-06-20T02:52:23.302Z,72.1
2019-06-20T02:53:25.581Z,72.1
2019-06-20T02:54:25.626Z,72.3
2019-06-20T02:55:24.374Z,72.1
2019-06-20T02:56:23.232Z,72.1
2019-06-20T02:57:20.318Z,72.2
2019-06-20T02:58:19.763Z,72.2
2019-06-20T02:59:19.066Z,72.2
2019-06-20T03:00:22.145Z,72.1
2019-06-20T03:01:27.307Z,72
2019-06-20T03:02:24.518Z,72.1
2019-06-20T03:03:21.649Z,72.1
2019-06-20T03:04:21.818Z,72.2
2019-06-20T03:05:25.232Z,72.1
2019-06-20T03:06:24.478Z,71.8
2019-06-20T03:07:24.543Z,71.7
2019-06-20T03:08:21.784Z,72.1
2019-06-20T03:09:20.241Z,72.1
2019-06-20T03:10:16.991Z,72.2
2019-06-20T03:11:16.348Z,72.2
2019-06-20T03:12:20.142Z,72.1
2019-06-20T03:13:17.381Z,72.1
2019-06-20T03:14:17.679Z,72.1
2019-06-20T03:15:11.965Z,72.1
2019-06-20T03:16:08.734Z,72.2
2019-06-20T03:17:12.887Z,72.2
2019-06-20T03:18:11.743Z,72.2
2019-06-20T03:19:10.396Z,72.2
2019-06-20T03:20:07.446Z,72.2
2019-06-20T03:21:06.991Z,72.1
2019-06-20T03:22:08.997Z,72.1
2019-06-20T03:23:11.731Z,72.1
2019-06-20T03:24:05.713Z,72.1
2019-06-20T03:25:08.074Z,72.1
2019-06-20T03:26:02.332Z,72.2
2019-06-20T03:27:00.407Z,72.1
2019-06-20T03:28:03.474Z,72.1
2019-06-20T03:29:03.350Z,72.1
2019-06-20T03:30:01.788Z,72.1
2019-06-20T03:31:01.726Z,72.1
2019-06-20T03:31:58.402Z,72.2
2019-06-20T03:32:57.962Z,72
2019-06-20T03:34:05.268Z,71.8
2019-06-20T03:35:04.589Z,71.9
2019-06-20T03:36:07.235Z,72
2019-06-20T03:37:02.697Z,72
2019-06-20T03:38:00.929Z,72
2019-06-20T03:39:00.968Z,72
2019-06-20T03:39:59.163Z,72
2019-06-20T03:40:56.547Z,72
2019-06-20T03:41:54.355Z,72
2019-06-20T03:42:51.993Z,72
2019-06-20T03:43:53.479Z,72.1
2019-06-20T03:45:02.099Z,72.1
2019-06-20T03:45:02.440Z,72.1
2019-06-20T03:45:52.328Z,72.3
2019-06-20T03:46:49.501Z,72.3
2019-06-20T03:47:48.938Z,72.2
2019-06-20T03:48:52.004Z,72
2019-06-20T03:49:54.538Z,72
2019-06-20T03:50:52.911Z,72.1
2019-06-20T03:51:52.538Z,72
2019-06-20T03:52:49.598Z,71.8
2019-06-20T03:53:47.729Z,72
2019-06-20T03:54:49.139Z,71.9
2019-06-20T03:55:48.808Z,72.1
2019-06-20T03:56:56.391Z,72
2019-06-20T03:57:50.722Z,72.3
2019-06-20T03:58:57.828Z,72.2
2019-06-20T03:59:54.706Z,72.4
2019-06-20T04:00:55.185Z,72.4
2019-06-20T04:01:54.674Z,72.3
2019-06-20T04:02:51.579Z,72.2
2019-06-20T04:03:48.345Z,72.3
2019-06-20T04:04:49.513Z,72.3
2019-06-20T04:05:47.313Z,72.4
2019-06-20T04:06:57.871Z,72.4
2019-06-20T04:07:52.167Z,72.7
2019-06-20T04:08:49.978Z,72.6
2019-06-20T04:09:46.936Z,72.6
2019-06-20T04:10:43.729Z,72.6
2019-06-20T04:11:41.330Z,72.5
2019-06-20T04:12:42.463Z,72.4
2019-06-20T04:13:42.811Z,72.5
2019-06-20T04:14:40.635Z,72.4
2019-06-20T04:15:39.409Z,72.3
2019-06-20T04:16:40.823Z,72.4
2019-06-20T04:17:39.113Z,72.4
2019-06-20T04:18:37.265Z,72.4
2019-06-20T04:19:34.418Z,72.4
2019-06-20T04:20:34.810Z,72.5
2019-06-20T04:21:32.856Z,72.4
2019-06-20T04:22:34.721Z,72.5
2019-06-20T04:23:32.663Z,72.4
2019-06-20T04:24:31.018Z,72.2
2019-06-20T04:25:30.123Z,72.3
2019-06-20T04:26:27.307Z,72.4
2019-06-20T04:27:24.171Z,72.4
2019-06-20T04:28:22.887Z,72.4
2019-06-20T04:29:21.723Z,72.3
2019-06-20T04:30:27.751Z,72.4
2019-06-20T04:31:26.317Z,72.6
2019-06-20T04:32:25.837Z,72.5
2019-06-20T04:33:25.052Z,72.6
2019-06-20T04:34:23.257Z,72.6
2019-06-20T04:35:20.449Z,72.6
2019-06-20T04:36:17.952Z,72.6
2019-06-20T04:37:18.103Z,72.7
2019-06-20T04:38:21.592Z,72
2019-06-20T04:39:25.087Z,71.9
2019-06-20T04:40:24.247Z,72.2
2019-06-20T04:41:24.247Z,72.2
2019-06-20T04:42:25.140Z,72.4
2019-06-20T04:43:34.122Z,72.4
2019-06-20T04:44:31.817Z,72.5
2019-06-20T04:45:35.580Z,72.6
2019-06-20T04:46:32.498Z,72.6
2019-06-20T04:47:29.850Z,72.8
2019-06-20T04:48:39.250Z,72.7
2019-06-20T04:49:39.442Z,72.6
2019-06-20T04:50:37.969Z,72.3
2019-06-20T04:51:43.136Z,72.4
2019-06-20T04:52:46.998Z,72.3
2019-06-20T04:53:44.050Z,72.4
2019-06-20T04:54:44.200Z,72.4
2019-06-20T04:55:42.981Z,72.6
2019-06-20T04:56:41.002Z,72.7
2019-06-20T04:57:40.191Z,72.8
2019-06-20T04:58:44.979Z,72.7
2019-06-20T04:59:42.590Z,72.9
2019-06-20T05:00:47.817Z,72.8
2019-06-20T05:01:45.450Z,72.8
2019-06-20T05:02:42.185Z,72.8
2019-06-20T05:03:43.099Z,72.5
2019-06-20T05:04:43.062Z,72.6
2019-06-20T05:05:40.871Z,72.6
2019-06-20T05:06:47.467Z,72.8
2019-06-20T05:07:49.628Z,72.8
2019-06-20T05:08:53.186Z,72.8
2019-06-20T05:09:55.279Z,72.8
2019-06-20T05:10:52.461Z,72.6
2019-06-20T05:11:49.663Z,72.6
2019-06-20T05:12:48.259Z,72.6
2019-06-20T05:13:46.310Z,72.6
2019-06-20T05:14:42.864Z,72.8
2019-06-20T05:15:52.038Z,72.8
2019-06-20T05:15:52.491Z,72.8
2019-06-20T05:15:52.919Z,72.8
2019-06-20T05:16:41.676Z,72.9
2019-06-20T05:17:43.074Z,72.9
2019-06-20T05:18:39.374Z,73
2019-06-20T05:19:39.513Z,73
2019-06-20T05:20:38.595Z,73
2019-06-20T05:21:39.024Z,73
2019-06-20T05:22:33.026Z,73.2
2019-06-20T05:23:36.026Z,73.2
2019-06-20T05:24:37.052Z,73.2
2019-06-20T05:25:35.880Z,73.3
2019-06-20T05:26:37.652Z,73.3
2019-06-20T05:27:34.222Z,72.9
2019-06-20T05:28:32.355Z,72.8
2019-06-20T05:29:32.986Z,72.4
2019-06-20T05:30:33.503Z,72.6
2019-06-20T05:31:31.739Z,72.9
2019-06-20T05:32:31.739Z,73.1
2019-06-20T05:33:31.975Z,73.3
2019-06-20T05:34:30.188Z,73.4
2019-06-20T05:35:27.496Z,73.6
2019-06-20T05:36:23.977Z,73.8
2019-06-20T05:37:28.427Z,73.6
2019-06-20T05:38:30.828Z,73.7
2019-06-20T05:39:30.472Z,73.7
2019-06-20T05:40:28.160Z,73.8
2019-06-20T05:41:26.767Z,73.8
2019-06-20T05:42:24.334Z,73.8
2019-06-20T05:43:22.450Z,73.7
2019-06-20T05:44:19.649Z,73.8
2019-06-20T05:45:20.853Z,73.9
2019-06-20T05:46:24.159Z,73.8
2019-06-20T05:47:25.336Z,73.9
2019-06-20T05:48:25.384Z,74
2019-06-20T05:49:25.429Z,74
2019-06-20T05:50:25.368Z,74.1
2019-06-20T05:51:22.404Z,73.8
2019-06-20T05:52:24.725Z,73.7
2019-06-20T05:53:27.311Z,74
2019-06-20T05:54:27.360Z,74
2019-06-20T05:55:26.227Z,74.1
2019-06-20T05:56:39.978Z,74.2
2019-06-20T05:57:37.134Z,74
2019-06-20T05:58:36.710Z,74.3
2019-06-20T05:59:40.962Z,74.4
2019-06-20T06:00:42.894Z,74.7
2019-06-20T06:01:47.473Z,74.1
2019-06-20T06:02:48.848Z,74
2019-06-20T06:03:49.900Z,74.2
2019-06-20T06:04:48.555Z,74.5
2019-06-20T06:05:45.955Z,74.5
2019-06-20T06:06:43.460Z,74
2019-06-20T06:07:40.503Z,74.1
2019-06-20T06:08:40.914Z,74.3
2019-06-20T06:09:38.316Z,74.4
2019-06-20T06:10:35.048Z,74.1
2019-06-20T06:12:12.030Z,74
2019-06-20T06:15:01.108Z,74.3
2019-06-20T06:15:57.700Z,74.5
2019-06-20T06:16:59.843Z,74.6
2019-06-20T06:18:02.623Z,74.3
2019-06-20T06:19:04.023Z,74.1
2019-06-20T06:20:08.271Z,74.1
2019-06-20T06:21:11.166Z,74.3
2019-06-20T06:22:13.457Z,74.5
2019-06-20T06:23:20.453Z,74.6
2019-06-20T06:24:19.372Z,74.7
2019-06-20T06:25:24.402Z,75
2019-06-20T06:26:22.831Z,74.5
2019-06-20T06:27:21.420Z,74.8
2019-06-20T06:28:22.258Z,74.7
2019-06-20T06:29:21.486Z,74.5
2019-06-20T06:30:22.737Z,74.6
2019-06-20T06:31:25.531Z,74.5
2019-06-20T06:32:39.679Z,74.1
2019-06-20T06:32:40.214Z,74.1
2019-06-20T06:32:40.499Z,74.1
2019-06-20T06:33:27.581Z,74.1
2019-06-20T06:34:27.592Z,74.1
2019-06-20T06:35:29.848Z,73.9
2019-06-20T06:36:30.409Z,73.9
2019-06-20T06:37:36.140Z,73.6
2019-06-20T06:38:35.981Z,73.8
2019-06-20T06:39:34.799Z,74
2019-06-20T06:40:33.557Z,73.8
2019-06-20T06:41:32.980Z,73.7
2019-06-20T06:42:31.888Z,73.6
2019-06-20T06:43:41.750Z,73.7
2019-06-20T06:43:42.321Z,73.7
2019-06-20T06:44:34.567Z,73.7
2019-06-20T06:45:42.006Z,73.8
2019-06-20T06:46:51.327Z,73.4
2019-06-20T06:46:54.224Z,73.4
2019-06-20T06:46:59.067Z,73.4
2019-06-20T06:47:45.698Z,72.6
2019-06-20T06:48:45.705Z,72.7
2019-06-20T06:49:45.484Z,73.1
2019-06-20T06:50:44.397Z,73.4
2019-06-20T06:51:50.066Z,73.6
2019-06-20T06:52:57.687Z,73.6
2019-06-20T06:53:56.905Z,73.6
2019-06-20T06:54:56.808Z,73.6
2019-06-20T06:55:57.419Z,73.6
2019-06-20T06:56:57.380Z,73.8
2019-06-20T06:57:56.397Z,73.8
2019-06-20T06:59:02.023Z,73.9
2019-06-20T07:00:01.038Z,73.8
2019-06-20T07:01:00.370Z,74.1
2019-06-20T07:02:02.363Z,74.3
2019-06-20T07:03:03.633Z,74.1
2019-06-20T07:04:02.141Z,74
2019-06-20T07:05:07.685Z,74.2
2019-06-20T07:06:09.796Z,74.1
2019-06-20T07:07:09.886Z,74.1
2019-06-20T07:08:09.581Z,74.1
2019-06-20T07:09:17.338Z,73.8
2019-06-20T07:10:16.893Z,73.9
2019-06-20T07:11:18.511Z,73.9
2019-06-20T07:12:22.036Z,73.8
2019-06-20T07:13:20.987Z,74.1
2019-06-20T07:14:20.251Z,74.1
2019-06-20T07:15:20.572Z,74
2019-06-20T07:16:21.499Z,73.8
2019-06-20T07:17:20.914Z,72.6
2019-06-20T07:18:21.282Z,72.7
2019-06-20T07:19:20.103Z,72.7
2019-06-20T07:20:20.043Z,72.9
2019-06-20T07:21:22.261Z,73.3
2019-06-20T07:22:22.008Z,73.2
2019-06-20T07:23:28.935Z,73.2
2019-06-20T07:24:29.165Z,73.4
2019-06-20T07:25:31.132Z,73.4
2019-06-20T07:26:30.378Z,73.5
2019-06-20T07:27:40.712Z,73.8
2019-06-20T07:28:40.276Z,73.4
2019-06-20T07:29:38.809Z,73.3
2019-06-20T07:30:41.151Z,73.3
2019-06-20T07:31:39.727Z,73.1
2019-06-20T07:32:38.521Z,72.8
2019-06-20T07:33:39.932Z,72.7
2019-06-20T07:34:41.139Z,72.5
2019-06-20T07:35:41.994Z,72.1
2019-06-20T07:36:39.887Z,72.1
2019-06-20T07:37:41.873Z,72.2
2019-06-20T07:38:40.436Z,72.3
2019-06-20T07:39:48.491Z,72.1
2019-06-20T07:40:54.206Z,72.4
2019-06-20T07:41:53.881Z,72.6
2019-06-20T07:42:54.028Z,72.6
2019-06-20T07:44:00.062Z,72.9
2019-06-20T07:45:01.673Z,72.8
2019-06-20T07:46:03.880Z,73.1
2019-06-20T07:47:17.054Z,72.7
2019-06-20T07:47:17.662Z,72.7
2019-06-20T07:47:18.003Z,72.7
2019-06-20T07:48:04.618Z,71.4
2019-06-20T07:49:03.935Z,71.6
2019-06-20T07:50:06.695Z,71.8
2019-06-20T07:51:05.845Z,72.2
2019-06-20T07:52:05.799Z,72.3
2019-06-20T07:53:07.986Z,72.2
2019-06-20T07:54:07.083Z,72.2
2019-06-20T07:55:08.208Z,72.2
2019-06-20T07:56:09.383Z,72.2
2019-06-20T07:57:08.877Z,72
2019-06-20T07:58:08.362Z,71.8
2019-06-20T07:59:08.990Z,71.3
2019-06-20T08:00:08.099Z,71.3
2019-06-20T08:01:16.666Z,70.9
2019-06-20T08:02:15.418Z,70.9
2019-06-20T08:03:30.154Z,71.1
2019-06-20T08:04:28.504Z,70.9
2019-06-20T08:05:28.137Z,70.5
2019-06-20T08:06:40.674Z,70.1
2019-06-20T08:07:40.037Z,70.1
2019-06-20T08:08:39.521Z,70.2
2019-06-20T08:09:45.110Z,69.6
2019-06-20T08:10:42.096Z,70.1
2019-06-20T08:11:41.421Z,69.3
2019-06-20T08:12:40.126Z,68.7
2019-06-20T08:13:40.343Z,69.2
2019-06-20T08:14:41.651Z,69.6
2019-06-20T08:15:40.570Z,69.3
2019-06-20T08:16:42.882Z,69.3
2019-06-20T08:17:42.029Z,69.2
2019-06-20T08:18:50.273Z,69.1
2019-06-20T08:20:07.465Z,69
2019-06-20T08:21:08.791Z,69.2
2019-06-20T08:22:22.388Z,68.9
2019-06-20T08:23:26.318Z,68.7
2019-06-20T08:24:28.829Z,68.5
2019-06-20T08:25:25.500Z,68.4
2019-06-20T08:26:26.725Z,69
2019-06-20T08:27:27.854Z,68.9
2019-06-20T08:28:26.591Z,69.3
2019-06-20T08:29:28.048Z,68.2
2019-06-20T08:30:28.942Z,67.8
2019-06-20T08:31:28.821Z,67.6
2019-06-20T08:32:31.610Z,66.7
2019-06-20T08:33:33.295Z,67.2
2019-06-20T08:34:41.338Z,66.8
2019-06-20T08:35:38.529Z,66.6
2019-06-20T08:36:43.115Z,66.3
2019-06-20T08:37:49.818Z,66.2
2019-06-20T08:38:57.445Z,65.1
2019-06-20T08:40:00.012Z,65.3
2019-06-20T08:41:04.317Z,65.6
2019-06-20T08:42:04.421Z,65.7
2019-06-20T08:43:08.834Z,66.4
2019-06-20T08:44:07.989Z,66.7
2019-06-20T08:45:13.868Z,66.9
2019-06-20T08:46:11.846Z,67.6
2019-06-20T08:47:13.599Z,67.7
2019-06-20T08:48:14.777Z,67.6
2019-06-20T08:49:15.402Z,67.9
2019-06-20T08:50:18.300Z,66
2019-06-20T08:51:18.285Z,66.3
2019-06-20T08:52:18.476Z,66
2019-06-20T08:53:20.218Z,64.9
2019-06-20T08:54:19.010Z,65.1
2019-06-20T08:55:18.428Z,64.6
2019-06-20T08:56:19.759Z,64.4
2019-06-20T08:57:23.047Z,65.3
2019-06-20T08:58:19.152Z,65.1
2019-06-20T08:59:24.795Z,65.6
2019-06-20T09:00:21.599Z,63.3
2019-06-20T09:01:20.784Z,65.1
2019-06-20T09:02:20.770Z,65.3
2019-06-20T09:03:20.363Z,65.5
2019-06-20T09:04:22.403Z,65.5
2019-06-20T09:05:25.373Z,65.1
2019-06-20T09:06:22.027Z,64.8
2019-06-20T09:07:21.785Z,64.8
2019-06-20T09:08:23.446Z,64.4
2019-06-20T09:09:25.903Z,64.6
2019-06-20T09:10:26.147Z,65
2019-06-20T09:11:26.119Z,63.4
2019-06-20T09:12:29.535Z,63.4
2019-06-20T09:13:36.686Z,63.5
2019-06-20T09:14:35.856Z,63.4
2019-06-20T09:15:35.596Z,63.7
2019-06-20T09:16:42.822Z,63.6
2019-06-20T09:17:43.627Z,62.7
2019-06-20T09:18:47.587Z,63.1
2019-06-20T09:19:47.790Z,63.1
2019-06-20T09:20:31.122Z,61.7
2019-06-20T09:21:32.831Z,61.6
2019-06-20T09:22:33.655Z,61
2019-06-20T09:23:35.679Z,61.7
2019-06-20T09:24:32.902Z,62.1
2019-06-20T09:25:33.784Z,62.2
2019-06-20T09:26:33.213Z,61.7
2019-06-20T09:27:32.583Z,61
2019-06-20T09:28:42.162Z,61.2
2019-06-20T09:29:43.087Z,60.5
2019-06-20T09:30:50.668Z,60.5
2019-06-20T09:31:52.455Z,60.5
2019-06-20T09:32:52.258Z,60.7
2019-06-20T09:33:56.196Z,60.5
2019-06-20T09:34:56.536Z,60.1
2019-06-20T09:35:55.602Z,60.3
2019-06-20T09:36:55.175Z,60.6
2019-06-20T09:37:57.131Z,61.1
2019-06-20T09:38:57.832Z,61.7
2019-06-20T09:39:59.196Z,62
2019-06-20T09:40:59.481Z,61.9
2019-06-20T09:42:05.249Z,61.7
2019-06-20T09:43:04.367Z,61.8
2019-06-20T09:44:06.658Z,61.6
2019-06-20T09:45:06.841Z,61.6
2019-06-20T09:46:09.390Z,60.6
2019-06-20T09:47:09.348Z,60.1
2019-06-20T09:48:12.056Z,60.4
2019-06-20T09:49:12.872Z,60.3
2019-06-20T09:50:13.158Z,60.3
2019-06-20T09:51:16.975Z,59.9
2019-06-20T09:52:22.090Z,60.3
2019-06-20T09:53:21.645Z,60.4
2019-06-20T09:54:24.293Z,60.3
2019-06-20T09:55:24.429Z,60.6
2019-06-20T09:56:27.906Z,60.6
2019-06-20T09:57:27.024Z,60.7
2019-06-20T09:58:26.788Z,61
2019-06-20T09:59:27.782Z,60.8
2019-06-20T10:00:31.867Z,60.5
2019-06-20T10:01:31.553Z,60.5
2019-06-20T10:02:35.339Z,60.4
2019-06-20T10:03:35.956Z,59.8
2019-06-20T10:04:35.111Z,59.9
2019-06-20T10:05:34.958Z,59.1
2019-06-20T10:06:41.147Z,59.1
2019-06-20T10:07:41.694Z,59.6
2019-06-20T10:08:44.146Z,60.1
2019-06-20T10:09:47.082Z,60.1
2019-06-20T10:10:49.355Z,60.4
2019-06-20T10:11:47.971Z,60.5
2019-06-20T10:12:49.647Z,61.5
2019-06-20T10:13:52.240Z,61.8
2019-06-20T10:14:53.564Z,62.3
2019-06-20T10:15:55.681Z,62.4
2019-06-20T10:17:00.264Z,61.9
2019-06-20T10:18:00.687Z,60.2
2019-06-20T10:19:00.226Z,60.2
2019-06-20T10:20:00.094Z,58.8
2019-06-20T10:21:02.189Z,59
2019-06-20T10:22:01.714Z,59
2019-06-20T10:23:01.168Z,59.1
2019-06-20T10:24:00.524Z,58.9
2019-06-20T10:25:00.957Z,58.2
2019-06-20T10:26:10.419Z,58.3
2019-06-20T10:27:11.121Z,59.1
2019-06-20T10:28:17.390Z,58.8
2019-06-20T10:29:20.217Z,59.2
2019-06-20T10:30:23.701Z,59.6
2019-06-20T10:31:26.640Z,59
2019-06-20T10:32:31.137Z,57.9
2019-06-20T10:33:37.087Z,58.4
2019-06-20T10:34:34.229Z,58.4
2019-06-20T10:35:36.521Z,58.4
2019-06-20T10:36:36.332Z,58.5
2019-06-20T10:37:35.662Z,58.7
2019-06-20T10:38:35.696Z,58.4
2019-06-20T10:39:36.297Z,58.5
2019-06-20T10:40:39.558Z,58.8
2019-06-20T10:41:45.200Z,58.9
2019-06-20T10:42:46.080Z,59.3
2019-06-20T10:43:49.553Z,59.5
2019-06-20T10:44:56.238Z,59.2
2019-06-20T10:45:58.571Z,58.9
2019-06-20T10:46:59.942Z,58.8
2019-06-20T10:47:59.508Z,59
2019-06-20T10:49:02.933Z,59.4
2019-06-20T10:50:06.488Z,59.6
2019-06-20T10:51:07.305Z,59.5
2019-06-20T10:52:07.770Z,58.4
2019-06-20T10:53:10.353Z,57.4
2019-06-20T10:54:14.472Z,57.6
2019-06-20T10:55:14.461Z,57.7
2019-06-20T10:56:14.445Z,57.2
2019-06-20T10:57:13.889Z,57
2019-06-20T10:58:17.916Z,57.1
2019-06-20T10:59:30.635Z,56.6
2019-06-20T11:00:31.183Z,56.8
2019-06-20T11:01:28.039Z,56.5
2019-06-20T11:02:31.117Z,56.5
2019-06-20T11:03:32.550Z,56.2
2019-06-20T11:04:35.529Z,56
2019-06-20T11:05:39.068Z,55
2019-06-20T11:06:39.876Z,55.2
2019-06-20T11:07:40.773Z,56
2019-06-20T11:08:43.281Z,55.4
2019-06-20T11:09:49.538Z,54
2019-06-20T11:10:50.875Z,54.2
2019-06-20T11:11:51.913Z,54.5
2019-06-20T11:12:56.666Z,55
2019-06-20T11:14:00.302Z,55.2
2019-06-20T11:15:00.268Z,55
2019-06-20T11:16:02.991Z,55
2019-06-20T11:17:03.497Z,55.2
2019-06-20T11:18:20.537Z,55.5
2019-06-20T11:19:18.295Z,55.7
2019-06-20T11:20:22.433Z,56.1
2019-06-20T11:21:21.582Z,56.3
2019-06-20T11:22:24.273Z,56.4
2019-06-20T11:23:33.203Z,56.5
2019-06-20T11:24:37.424Z,55.9
2019-06-20T11:25:41.978Z,54.3
2019-06-20T11:26:41.130Z,55.2
2019-06-20T11:27:43.110Z,54.5
2019-06-20T11:28:48.704Z,55.3
2019-06-20T11:29:46.674Z,56.3
2019-06-20T11:30:58.042Z,56.2
2019-06-20T11:30:59.899Z,56.2
2019-06-20T11:31:00.595Z,56.2
2019-06-20T11:31:54.628Z,55.4
2019-06-20T11:32:55.370Z,55.6
2019-06-20T11:33:55.939Z,55.3
2019-06-20T11:34:55.914Z,54.9
2019-06-20T11:35:55.947Z,53.6
2019-06-20T11:36:56.974Z,53.5
2019-06-20T11:38:00.323Z,53.5
2019-06-20T11:39:05.541Z,53.6
2019-06-20T11:40:04.023Z,53.6
2019-06-20T11:41:05.834Z,53.8
2019-06-20T11:42:05.847Z,53.5
2019-06-20T11:43:07.025Z,53.4
2019-06-20T11:44:09.331Z,54
2019-06-20T11:45:09.080Z,54.5
2019-06-20T11:46:08.630Z,54.3
2019-06-20T11:47:08.870Z,53.9
2019-06-20T11:48:08.509Z,53.7
2019-06-20T11:49:08.892Z,54.2
2019-06-20T11:50:12.282Z,53.8
2019-06-20T11:51:14.136Z,54.2
2019-06-20T11:52:16.185Z,55
2019-06-20T11:53:14.264Z,54.2
2019-06-20T11:54:14.192Z,53.8
2019-06-20T11:55:14.683Z,54.2
2019-06-20T11:56:28.515Z,54.8
2019-06-20T11:57:29.889Z,55.5
2019-06-20T11:58:37.545Z,55
2019-06-20T11:59:34.675Z,54.8
2019-06-20T12:00:34.226Z,54.8
2019-06-20T12:01:34.563Z,54.7
2019-06-20T12:02:44.262Z,54.7
2019-06-20T12:03:44.542Z,55.2
2019-06-20T12:04:49.115Z,55.2
2019-06-20T12:05:47.936Z,55
2019-06-20T12:06:47.609Z,55.1
2019-06-20T12:07:51.419Z,55.3
2019-06-20T12:08:53.692Z,56.1
2019-06-20T12:09:54.816Z,55.8
2019-06-20T12:11:00.701Z,55.5
2019-06-20T12:12:02.564Z,55.4
2019-06-20T12:13:02.490Z,55.5
2019-06-20T12:14:02.909Z,55.6
2019-06-20T12:15:07.701Z,54.7
2019-06-20T12:16:06.814Z,54
2019-06-20T12:17:12.395Z,53.8
2019-06-20T12:18:16.510Z,54.1
2019-06-20T12:19:23.147Z,54
2019-06-20T12:20:25.825Z,54.3
2019-06-20T12:21:26.719Z,54.5
2019-06-20T12:22:29.570Z,55.1
2019-06-20T12:23:33.489Z,55.7
2019-06-20T12:24:33.111Z,56
2019-06-20T12:25:35.119Z,54.7
2019-06-20T12:26:35.785Z,54.3
2019-06-20T12:27:36.085Z,54.5
2019-06-20T12:28:35.931Z,53.8
2019-06-20T12:29:37.728Z,53.9
2019-06-20T12:30:38.437Z,53.4
2019-06-20T12:31:37.771Z,53.8
2019-06-20T12:32:40.646Z,53.9
2019-06-20T12:33:45.087Z,54.8
2019-06-20T12:34:45.014Z,55.3
2019-06-20T12:35:46.751Z,55.4
2019-06-20T12:36:58.952Z,55.5
2019-06-20T12:38:01.288Z,54.9
2019-06-20T12:39:14.680Z,54.5
2019-06-20T12:40:18.773Z,54.3
2019-06-20T12:41:18.508Z,54.7
2019-06-20T12:43:30.708Z,55.4
2019-06-20T12:44:30.715Z,55
2019-06-20T12:45:33.471Z,55
2019-06-20T12:46:33.907Z,55.5
2019-06-20T12:47:34.441Z,55.6
2019-06-20T12:48:34.708Z,55.9
2019-06-20T12:49:38.971Z,55.3
2019-06-20T12:50:38.519Z,55.2
2019-06-20T12:51:39.088Z,55
2019-06-20T12:52:42.598Z,55.5
2019-06-20T12:53:50.948Z,55.8
2019-06-20T12:54:49.721Z,55.6
2019-06-20T12:55:54.226Z,56.1
2019-06-20T12:56:55.557Z,56.4
2019-06-20T12:58:05.842Z,56.1
2019-06-20T12:59:06.213Z,56
2019-06-20T13:00:08.602Z,56.2
2019-06-20T13:01:08.155Z,55.5
2019-06-20T13:02:07.686Z,55.4
2019-06-20T13:04:11.887Z,55.9
2019-06-20T13:05:12.792Z,56.2
2019-06-20T13:06:19.127Z,56.4
2019-06-20T13:07:18.980Z,56.3
2019-06-20T13:08:19.265Z,56.2
2019-06-20T13:09:22.526Z,56.3
2019-06-20T13:10:23.273Z,56.4
2019-06-20T13:11:25.467Z,56.3
2019-06-20T13:12:25.011Z,56.4
2019-06-20T13:13:27.775Z,56
2019-06-20T13:14:29.661Z,55.1
2019-06-20T13:15:37.656Z,55.3
2019-06-20T13:16:43.975Z,55.6
2019-06-20T13:17:47.123Z,55.7
2019-06-20T13:18:50.387Z,55.3
2019-06-20T13:19:49.752Z,55.3
2019-06-20T13:20:59.672Z,55.9
2019-06-20T13:21:59.859Z,55.5
2019-06-20T13:23:02.474Z,55.8
2019-06-20T13:24:09.059Z,55.9
2019-06-20T13:25:11.479Z,56.5
2019-06-20T13:26:13.429Z,55.6
2019-06-20T13:27:15.297Z,55.3